Time;durP1;ratioP1;P1;durP2;ratioP2;P2;SDS_P1;SDS_P2;PMS_P1;PMS_P2;Temp;Humidity;BMP_temperature;BMP_pressure;BME280_temperature;BME280_humidity;BME280_pressure;Samples;Min_cycle;Max_cycle;Signal;HPM_P1;HPM_P2
2023/06/08 00:02:23;;;;;;;15.10;7.72;;;;;;;;;;5051969;28;20068;-84
2023/06/08 00:04:50;;;;;;;18.40;7.68;;;;;;;;;;5029496;28;20056;-82
2023/06/08 00:07:17;;;;;;;12.63;7.65;;;;;;;;;;5032247;28;20045;-83
2023/06/08 00:09:43;;;;;;;15.30;6.90;;;;;;;;;;5018936;28;20064;-83
2023/06/08 00:12:10;;;;;;;17.65;7.68;;;;;;;;;;5035151;28;20037;-82
2023/06/08 00:14:37;;;;;;;16.73;7.30;;;;;;;;;;5051294;28;20068;-82
2023/06/08 00:17:04;;;;;;;17.25;7.75;;;;;;;;;;5050797;28;20132;-82
2023/06/08 00:19:35;;;;;;;16.23;8.30;;;;;;;;;;5027541;28;20054;-82
2023/06/08 00:22:07;;;;;;;16.33;7.43;;;;;;;;;;5077103;28;20080;-87
2023/06/08 00:24:33;;;;;;;17.25;7.43;;;;;;;;;;5052036;28;20083;-82
2023/06/08 00:27:00;;;;;;;22.58;7.65;;;;;;;;;;5051895;28;20051;-85
2023/06/08 00:29:26;;;;;;;18.73;8.27;;;;;;;;;;5034744;28;20071;-82
2023/06/08 00:31:52;;;;;;;;;;;;;;;;;;5036034;28;20071;-82
2023/06/08 00:34:18;;;;;;;17.40;7.63;;;;;;;;;;5051566;28;19924;-82
2023/06/08 00:36:45;;;;;;;17.88;7.30;;;;;;;;;;5035423;28;20045;-82
2023/06/08 00:39:12;;;;;;;14.63;8.00;;;;;;;;;;5037370;28;20133;-82
2023/06/08 00:41:38;;;;;;;20.38;8.73;;;;;;;;;;5015667;28;20139;-81
2023/06/08 00:44:08;;;;;;;18.52;7.80;;;;;;;;;;5032092;28;20149;-82
2023/06/08 00:46:35;;;;;;;17.23;8.05;;;;;;;;;;5032002;28;20483;-82
2023/06/08 00:49:01;;;;;;;19.98;8.15;;;;;;;;;;5031291;28;20407;-82
2023/06/08 00:51:29;;;;;;;13.68;7.80;;;;;;;;;;5031362;28;20052;-82
2023/06/08 00:53:56;;;;;;;17.33;7.97;;;;;;;;;;5032080;28;20047;-82
2023/06/08 00:56:26;;;;;;;19.17;8.52;;;;;;;;;;5015459;28;20514;-79
2023/06/08 00:58:52;;;;;;;18.52;8.50;;;;;;;;;;5031881;28;20098;-79
2023/06/08 01:01:19;;;;;;;20.80;8.68;;;;;;;;;;5031338;28;20049;-80
2023/06/08 01:03:45;;;;;;;22.75;8.85;;;;;;;;;;5031262;28;20132;-79
2023/06/08 01:06:12;;;;;;;16.15;8.60;;;;;;;;;;5030031;28;20045;-80
2023/06/08 01:08:47;;;;;;;20.73;8.52;;;;;;;;;;5030178;28;20115;-81
2023/06/08 01:11:31;;;;;;;18.30;8.35;;;;;;;;;;5031870;28;20057;-79
2023/06/08 01:14:08;;;;;;;19.70;8.38;;;;;;;;;;5034922;28;20041;-79
2023/06/08 01:16:37;;;;;;;21.30;8.55;;;;;;;;;;5051831;28;20068;-79
2023/06/08 01:19:08;;;;;;;21.20;9.75;;;;;;;;;;5051252;28;20041;-82
2023/06/08 01:21:46;;;;;;;24.88;8.07;;;;;;;;;;5035103;28;20053;-79
2023/06/08 01:24:24;;;;;;;19.98;8.30;;;;;;;;;;5051005;28;20048;-79
2023/06/08 01:26:50;;;;;;;21.25;8.73;;;;;;;;;;5034486;28;20154;-79
2023/06/08 01:29:17;;;;;;;16.50;8.38;;;;;;;;;;5034212;28;20055;-79
2023/06/08 01:31:43;;;;;;;20.23;8.23;;;;;;;;;;5018443;28;20047;-79
2023/06/08 01:34:11;;;;;;;17.17;8.88;;;;;;;;;;5034656;28;20167;-80
2023/06/08 01:36:45;;;;;;;15.35;7.82;;;;;;;;;;5051661;28;20053;-80
2023/06/08 01:39:18;;;;;;;20.17;8.32;;;;;;;;;;5051411;28;20132;-80
2023/06/08 01:41:45;;;;;;;21.13;8.63;;;;;;;;;;5051564;28;20091;-80
2023/06/08 01:44:13;;;;;;;23.35;8.80;;;;;;;;;;5050954;28;20041;-79
2023/06/08 01:46:39;;;;;;;16.45;7.93;;;;;;;;;;5051152;28;20045;-78
2023/06/08 01:49:06;;;;;;;21.95;8.82;;;;;;;;;;5034741;28;20402;-79
2023/06/08 01:51:32;;;;;;;15.50;7.82;;;;;;;;;;5014186;28;20257;-80
2023/06/08 01:54:03;;;;;;;20.50;7.85;;;;;;;;;;5013963;28;20471;-80
2023/06/08 01:56:30;;;;;;;17.48;7.75;;;;;;;;;;5029497;28;20399;-79
2023/06/08 01:58:57;;;;;;;18.75;8.25;;;;;;;;;;5030095;28;20056;-80
2023/06/08 02:01:23;;;;;;;17.60;7.50;;;;;;;;;;5030956;28;20054;-79
2023/06/08 02:03:49;;;;;;;17.58;6.55;;;;;;;;;;5014415;28;20045;-79
2023/06/08 02:06:15;;;;;;;21.67;7.50;;;;;;;;;;5037541;28;20051;-81
2023/06/08 02:08:41;;;;;;;16.52;6.38;;;;;;;;;;5034383;28;20406;-80
2023/06/08 02:11:07;;;;;;;;;;;;;;;;;;5035082;28;20502;-80
2023/06/08 02:13:37;;;;;;;17.73;7.10;;;;;;;;;;5034536;28;19921;-79
2023/06/08 02:16:03;;;;;;;15.02;6.80;;;;;;;;;;5036471;28;20613;-79
2023/06/08 02:18:30;;;;;;;;;;;;;;;;;;5054284;28;20049;-80
2023/06/08 02:20:56;;;;;;;23.55;7.25;;;;;;;;;;5054404;28;19920;-79
2023/06/08 02:23:22;;;;;;;;;;;;;;;;;;5046879;28;20054;-79
2023/06/08 02:25:50;;;;;;;17.85;7.03;;;;;;;;;;5046010;28;19925;-79
2023/06/08 02:28:16;;;;;;;19.88;6.93;;;;;;;;;;5053604;28;20047;-80
2023/06/08 02:30:42;;;;;;;;;;;;;;;;;;5034188;28;20052;-79
2023/06/08 02:33:08;;;;;;;13.65;6.90;;;;;;;;;;5036976;28;19966;-80
2023/06/08 02:35:34;;;;;;;;;;;;;;;;;;5023487;28;20612;-79
2023/06/08 02:38:00;;;;;;;18.25;7.32;;;;;;;;;;5034397;28;20326;-80
2023/06/08 02:40:26;;;;;;;15.68;6.72;;;;;;;;;;5034194;28;20376;-79
2023/06/08 02:42:53;;;;;;;18.92;7.32;;;;;;;;;;5017844;28;20053;-79
2023/06/08 02:45:19;;;;;;;20.33;8.00;;;;;;;;;;5034041;28;20053;-79
2023/06/08 02:47:45;;;;;;;17.58;7.63;;;;;;;;;;5033896;28;20064;-79
2023/06/08 02:50:11;;;;;;;15.38;7.60;;;;;;;;;;5034180;28;20131;-79
2023/06/08 02:52:37;;;;;;;15.20;7.20;;;;;;;;;;5033967;28;20468;-79
2023/06/08 02:55:04;;;;;;;24.52;8.48;;;;;;;;;;5017602;28;20041;-79
2023/06/08 02:57:30;;;;;;;;;;;;;;;;;;5034177;28;20049;-79
2023/06/08 02:59:56;;;;;;;16.83;8.05;;;;;;;;;;5034219;28;20294;-79
2023/06/08 03:02:22;;;;;;;;;;;;;;;;;;5034332;28;20045;-83
2023/06/08 03:04:48;;;;;;;17.15;7.38;;;;;;;;;;5034120;28;20326;-79
2023/06/08 03:07:15;;;;;;;;;;;;;;;;;;5034448;28;20041;-81
2023/06/08 03:09:42;;;;;;;19.50;7.90;;;;;;;;;;5033434;28;19928;-80
2023/06/08 03:12:09;;;;;;;20.65;8.48;;;;;;;;;;5034053;28;20052;-79
2023/06/08 03:14:38;;;;;;;13.98;7.70;;;;;;;;;;5017594;28;20501;-79
2023/06/08 03:17:04;;;;;;;17.27;8.30;;;;;;;;;;5016662;28;20060;-80
2023/06/08 03:19:30;;;;;;;21.73;8.18;;;;;;;;;;5034158;28;20514;-81
2023/06/08 03:22:00;;;;;;;12.98;7.15;;;;;;;;;;5034625;28;20129;-81
2023/06/08 03:24:31;;;;;;;14.00;7.57;;;;;;;;;;5034516;28;20049;-81
2023/06/08 03:27:14;;;;;;;19.17;8.63;;;;;;;;;;5034321;28;20053;-81
2023/06/08 03:29:40;;;;;;;14.63;7.60;;;;;;;;;;5034186;28;20127;-81
2023/06/08 03:32:07;;;;;;;20.27;8.05;;;;;;;;;;5034193;28;20136;-82
2023/06/08 03:34:33;;;;;;;20.30;7.60;;;;;;;;;;5033967;28;20057;-82
2023/06/08 03:37:00;;;;;;;21.52;8.25;;;;;;;;;;5034215;28;20053;-81
2023/06/08 03:39:26;;;;;;;23.67;8.80;;;;;;;;;;5033933;28;20140;-82
2023/06/08 03:41:52;;;;;;;20.35;8.57;;;;;;;;;;5033916;28;20050;-81
2023/06/08 03:44:18;;;;;;;17.08;7.68;;;;;;;;;;5033852;28;20049;-81
2023/06/08 03:46:44;;;;;;;;;;;;;;;;;;5034034;28;20041;-81
2023/06/08 03:49:10;;;;;;;18.55;7.55;;;;;;;;;;5034028;28;20306;-79
2023/06/08 03:51:37;;;;;;;;;;;;;;;;;;5033757;28;20155;-79
2023/06/08 03:54:03;;;;;;;12.65;6.70;;;;;;;;;;5033390;28;19940;-79
2023/06/08 03:56:29;;;;;;;;;;;;;;;;;;5033675;28;20041;-80
2023/06/08 03:58:56;;;;;;;17.88;7.45;;;;;;;;;;5033142;28;19928;-79
2023/06/08 04:01:23;;;;;;;16.95;7.50;;;;;;;;;;5017020;28;20410;-83
2023/06/08 04:03:49;;;;;;;20.00;7.80;;;;;;;;;;5033133;28;20092;-80
2023/06/08 04:06:16;;;;;;;12.48;6.95;;;;;;;;;;5032856;28;20133;-79
2023/06/08 04:08:44;;;;;;;17.17;7.30;;;;;;;;;;5049224;28;20157;-80
2023/06/08 04:11:10;;;;;;;15.27;7.13;;;;;;;;;;5033211;28;20152;-79
2023/06/08 04:13:36;;;;;;;;;;;;;;;;;;5049730;28;20049;-79
2023/06/08 04:16:09;;;;;;;12.18;6.70;;;;;;;;;;5032883;28;20023;-79
2023/06/08 04:18:41;;;;;;;19.20;6.85;;;;;;;;;;5033674;28;20084;-79
2023/06/08 04:21:08;;;;;;;17.17;7.40;;;;;;;;;;5049328;28;20052;-80
2023/06/08 04:23:34;;;;;;;16.42;6.88;;;;;;;;;;5049778;28;20479;-84
2023/06/08 04:26:02;;;;;;;12.93;6.90;;;;;;;;;;5049698;28;20091;-81
2023/06/08 04:28:28;;;;;;;19.25;7.05;;;;;;;;;;5049214;28;20055;-81
2023/06/08 04:30:55;;;;;;;13.85;6.60;;;;;;;;;;5033026;28;20049;-81
2023/06/08 04:33:22;;;;;;;22.70;7.80;;;;;;;;;;5033787;28;20167;-82
2023/06/08 04:36:11;;;;;;;16.65;7.13;;;;;;;;;;5033927;28;20041;-81
2023/06/08 04:38:38;;;;;;;18.25;7.10;;;;;;;;;;5036178;28;20088;-82
2023/06/08 04:41:07;;;;;;;;;;;;;;;;;;5040159;28;20045;-82
2023/06/08 04:43:34;;;;;;;21.25;7.00;;;;;;;;;;5055435;28;19924;-79
2023/06/08 04:46:04;;;;;;;16.55;6.78;;;;;;;;;;5089179;28;20109;-79
2023/06/08 04:48:33;;;;;;;17.80;7.97;;;;;;;;;;5088578;28;20052;-79
2023/06/08 04:51:01;;;;;;;14.63;7.05;;;;;;;;;;5088968;28;20044;-81
2023/06/08 04:53:27;;;;;;;16.65;7.93;;;;;;;;;;5055408;28;20136;-83
2023/06/08 04:55:57;;;;;;;17.38;7.90;;;;;;;;;;5055305;28;20385;-80
2023/06/08 04:58:26;;;;;;;21.35;8.40;;;;;;;;;;5055797;28;20052;-81
2023/06/08 05:00:53;;;;;;;17.02;7.75;;;;;;;;;;5089457;28;20044;-81
2023/06/08 05:03:22;;;;;;;15.73;7.80;;;;;;;;;;5055895;28;20482;-81
2023/06/08 05:09:12;;;;;;;18.50;8.27;;;;;;;;;;5073099;28;20141;-81
2023/06/08 05:12:29;;;;;;;21.83;9.00;;;;;;;;;;5056907;28;20051;-81
2023/06/08 05:15:42;;;;;;;22.25;9.60;;;;;;;;;;5089527;28;20048;-82
2023/06/08 05:22:17;;;;;;;26.15;9.50;;;;;;;;;;5073287;28;20040;-82
2023/06/08 05:24:43;;;;;;;19.15;7.85;;;;;;;;;;5056444;28;20049;-82
2023/06/08 05:27:09;;;;;;;20.73;9.55;;;;;;;;;;5055618;28;20051;-82
2023/06/08 05:29:35;;;;;;;21.05;9.52;;;;;;;;;;5089251;28;20131;-82
2023/06/08 05:32:01;;;;;;;;;;;;;;;;;;5056473;28;20044;-82
2023/06/08 05:34:28;;;;;;;22.70;9.82;;;;;;;;;;5071828;28;19920;-81
2023/06/08 05:36:54;;;;;;;23.52;10.23;;;;;;;;;;5055583;28;20138;-82
2023/06/08 05:39:21;;;;;;;22.25;11.23;;;;;;;;;;5038876;28;20050;-82
2023/06/08 05:41:47;;;;;;;;;;;;;;;;;;5059076;28;20106;-82
2023/06/08 05:44:13;;;;;;;20.98;10.32;;;;;;;;;;5075856;28;19924;-82
2023/06/08 05:46:39;;;;;;;25.25;10.32;;;;;;;;;;5058978;28;20480;-82
2023/06/08 05:49:05;;;;;;;27.08;10.88;;;;;;;;;;5058569;28;20094;-82
2023/06/08 05:51:32;;;;;;;26.63;11.75;;;;;;;;;;5058386;28;20048;-87
2023/06/08 05:53:58;;;;;;;23.20;10.52;;;;;;;;;;5061703;28;20047;-82
2023/06/08 05:56:25;;;;;;;22.38;9.57;;;;;;;;;;5078558;28;20497;-82
2023/06/08 05:58:51;;;;;;;18.30;8.63;;;;;;;;;;5070207;28;20052;-83
2023/06/08 06:01:20;;;;;;;22.17;9.25;;;;;;;;;;5051989;28;20500;-82
2023/06/08 06:03:46;;;;;;;20.17;9.07;;;;;;;;;;5042018;28;20143;-85
2023/06/08 06:06:13;;;;;;;16.35;8.32;;;;;;;;;;5058521;28;20057;-81
2023/06/08 06:08:39;;;;;;;18.83;8.93;;;;;;;;;;5058182;28;20056;-82
2023/06/08 06:11:05;;;;;;;;;;;;;;;;;;5059021;28;20059;-82
2023/06/08 06:13:31;;;;;;;19.02;9.65;;;;;;;;;;5056384;28;19931;-91
2023/06/08 06:15:58;;;;;;;19.45;7.78;;;;;;;;;;5055871;28;20797;-85
2023/06/08 06:18:24;;;;;;;19.42;8.65;;;;;;;;;;5056200;28;20056;-89
2023/06/08 06:20:50;;;;;;;15.95;7.85;;;;;;;;;;5056764;28;20048;-91
2023/06/08 06:23:16;;;;;;;23.52;8.38;;;;;;;;;;5058973;28;20056;-86
2023/06/08 06:25:43;;;;;;;14.80;7.45;;;;;;;;;;5057544;28;20052;-87
2023/06/08 06:28:09;;;;;;;14.02;7.55;;;;;;;;;;5023621;28;20036;-84
2023/06/08 06:30:36;;;;;;;15.02;7.18;;;;;;;;;;5040951;28;20493;-86
2023/06/08 06:33:02;;;;;;;15.50;6.80;;;;;;;;;;5057487;28;20047;-86
2023/06/08 06:35:28;;;;;;;16.58;7.18;;;;;;;;;;5057589;28;20055;-86
2023/06/08 06:37:55;;;;;;;;;;;;;;;;;;5041355;28;20048;-86
2023/06/08 06:40:21;;;;;;;;;;;;;;;;;;5041534;28;19924;-87
2023/06/08 06:42:47;;;;;;;12.93;6.05;;;;;;;;;;5052272;28;19920;-86
2023/06/08 06:45:14;;;;;;;;;;;;;;;;;;5074390;28;20048;-86
2023/06/08 06:47:40;;;;;;;10.48;5.75;;;;;;;;;;5089780;28;19925;-85
2023/06/08 06:50:06;;;;;;;14.25;6.72;;;;;;;;;;5090062;28;20053;-85
2023/06/08 06:52:33;;;;;;;12.15;6.22;;;;;;;;;;5045250;28;20052;-85
2023/06/08 06:54:59;;;;;;;13.00;6.25;;;;;;;;;;5040028;28;20382;-87
2023/06/08 06:57:25;;;;;;;13.05;5.70;;;;;;;;;;5040922;28;20044;-85
2023/06/08 06:59:51;;;;;;;;;;;;;;;;;;5072090;28;20093;-86
2023/06/08 07:02:18;;;;;;;12.27;6.25;;;;;;;;;;5059528;28;19920;-90
2023/06/08 07:04:44;;;;;;;24.00;7.57;;;;;;;;;;5076549;28;20044;-87
2023/06/08 07:07:10;;;;;;;16.95;6.75;;;;;;;;;;5077686;28;20048;-86
2023/06/08 07:09:36;;;;;;;;;;;;;;;;;;5060552;28;20504;-88
2023/06/08 07:12:02;;;;;;;13.88;6.45;;;;;;;;;;5060190;28;19924;-87
2023/06/08 07:14:28;;;;;;;;;;;;;;;;;;5059916;28;20447;-85
2023/06/08 07:16:54;;;;;;;19.65;6.82;;;;;;;;;;5059191;28;19924;-69
2023/06/08 07:19:20;;;;;;;12.38;5.47;;;;;;;;;;5091976;28;20048;-69
2023/06/08 07:21:47;;;;;;;13.80;5.95;;;;;;;;;;5090936;28;20139;-69
2023/06/08 07:24:12;;;;;;;;;;;;;;;;;;5073785;28;20390;-70
2023/06/08 07:26:39;;;;;;;13.75;6.10;;;;;;;;;;5092334;28;19973;-70
2023/06/08 07:29:05;;;;;;;;;;;;;;;;;;5073725;28;20636;-70
2023/06/08 07:31:31;;;;;;;10.73;6.07;;;;;;;;;;5092295;28;19986;-71
2023/06/08 07:33:58;;;;;;;10.68;5.88;;;;;;;;;;5061706;28;20053;-82
2023/06/08 07:36:24;;;;;;;12.20;5.30;;;;;;;;;;5053154;28;20052;-81
2023/06/08 07:38:55;;;;;;;;;;;;;;;;;;5055544;28;20040;-81
2023/06/08 07:41:21;;;;;;;14.07;5.93;;;;;;;;;;5073700;28;20319;-82
2023/06/08 07:43:47;;;;;;;11.20;5.47;;;;;;;;;;5066212;28;20224;-82
2023/06/08 07:46:13;;;;;;;12.95;5.88;;;;;;;;;;5071674;28;20090;-81
2023/06/08 07:48:39;;;;;;;10.73;5.68;;;;;;;;;;5067299;28;20047;-82
2023/06/08 07:51:05;;;;;;;20.88;6.78;;;;;;;;;;5090848;28;20055;-83
2023/06/08 07:53:38;;;;;;;11.55;5.82;;;;;;;;;;5043226;28;20044;-83
2023/06/08 07:56:05;;;;;;;13.88;6.03;;;;;;;;;;5067673;28;20330;-88
2023/06/08 07:58:31;;;;;;;11.25;5.68;;;;;;;;;;5039183;28;20041;-82
2023/06/08 08:00:58;;;;;;;11.43;5.63;;;;;;;;;;5057411;28;20044;-81
2023/06/08 08:03:24;;;;;;;13.32;6.00;;;;;;;;;;5068060;28;20392;-83
2023/06/08 08:05:50;;;;;;;13.15;5.32;;;;;;;;;;5065270;28;20047;-93
2023/06/08 08:08:17;;;;;;;12.75;5.45;;;;;;;;;;5059989;28;20122;-85
2023/06/08 08:10:43;;;;;;;10.20;5.50;;;;;;;;;;5057645;28;20086;-82
2023/06/08 08:13:09;;;;;;;;;;;;;;;;;;5075237;28;20056;-89
2023/06/08 08:15:36;;;;;;;11.00;5.05;;;;;;;;;;5075883;28;20022;-87
2023/06/08 08:18:02;;;;;;;15.88;6.07;;;;;;;;;;5038307;28;20076;-81
2023/06/08 08:20:28;;;;;;;15.05;5.63;;;;;;;;;;5071979;28;20049;-81
2023/06/08 08:22:54;;;;;;;;;;;;;;;;;;5055498;28;20050;-81
2023/06/08 08:25:21;;;;;;;11.35;5.57;;;;;;;;;;5073636;28;20354;-81
2023/06/08 08:27:47;;;;;;;13.15;4.97;;;;;;;;;;5074228;28;20060;-86
2023/06/08 08:30:13;;;;;;;;;;;;;;;;;;5057807;28;20048;-81
2023/06/08 08:32:39;;;;;;;16.90;5.43;;;;;;;;;;5067137;28;20434;-81
2023/06/08 08:35:05;;;;;;;10.02;4.88;;;;;;;;;;5070422;28;20095;-81
2023/06/08 08:37:32;;;;;;;7.88;3.92;;;;;;;;;;5089064;28;20047;-82
2023/06/08 08:39:58;;;;;;;12.15;4.75;;;;;;;;;;5041830;28;20094;-82
2023/06/08 08:42:28;;;;;;;9.45;4.35;;;;;;;;;;5075407;28;20055;-81
2023/06/08 08:44:55;;;;;;;12.60;4.55;;;;;;;;;;5067983;28;20131;-82
2023/06/08 08:47:26;;;;;;;6.97;4.10;;;;;;;;;;5055219;28;20481;-83
2023/06/08 08:49:57;;;;;;;12.93;4.60;;;;;;;;;;5091501;28;20044;-87
2023/06/08 08:52:26;;;;;;;12.73;3.97;;;;;;;;;;5072503;28;20501;-89
2023/06/08 08:54:56;;;;;;;12.50;4.28;;;;;;;;;;5043349;28;20175;-93
2023/06/08 08:57:25;;;;;;;8.75;4.18;;;;;;;;;;5056199;28;20048;-91
2023/06/08 08:59:51;;;;;;;8.93;4.45;;;;;;;;;;5043480;28;20040;-91
2023/06/08 09:02:17;;;;;;;;;;;;;;;;;;5076180;28;20052;-80
2023/06/08 09:04:45;;;;;;;7.80;4.05;;;;;;;;;;5053988;28;20270;-83
2023/06/08 09:07:11;;;;;;;13.25;4.00;;;;;;;;;;5052137;28;20057;-85
2023/06/08 09:09:37;;;;;;;9.48;3.78;;;;;;;;;;5036140;28;20049;-86
2023/06/08 09:12:04;;;;;;;;;;;;;;;;;;5037263;28;20433;-86
2023/06/08 09:14:30;;;;;;;;;;;;;;;;;;5055583;28;19967;-86
2023/06/08 09:17:01;;;;;;;8.70;3.50;;;;;;;;;;5058925;28;19927;-87
2023/06/08 09:19:28;;;;;;;10.02;4.25;;;;;;;;;;5058672;28;20044;-87
2023/06/08 09:21:55;;;;;;;8.05;3.40;;;;;;;;;;5058856;28;20095;-87
2023/06/08 09:24:22;;;;;;;10.98;4.35;;;;;;;;;;5058982;28;20095;-87
2023/06/08 09:26:49;;;;;;;5.90;3.20;;;;;;;;;;5075479;28;20503;-87
2023/06/08 09:29:52;;;;;;;8.63;3.60;;;;;;;;;;5058042;28;20052;-86
2023/06/08 09:32:25;;;;;;;11.30;3.95;;;;;;;;;;5092076;28;20078;-87
2023/06/08 09:34:56;;;;;;;8.05;3.50;;;;;;;;;;5058677;28;20044;-87
2023/06/08 09:37:26;;;;;;;8.02;3.40;;;;;;;;;;5058509;28;20068;-85
2023/06/08 09:39:52;;;;;;;6.18;3.13;;;;;;;;;;5057633;28;20049;-90
2023/06/08 09:42:18;;;;;;;6.85;3.25;;;;;;;;;;5062331;28;20777;-88
2023/06/08 09:44:44;;;;;;;;;;;;;;;;;;5058876;28;20389;-87
2023/06/08 09:47:19;;;;;;;8.70;3.92;;;;;;;;;;5041671;28;19920;-87
2023/06/08 09:49:46;;;;;;;7.63;3.70;;;;;;;;;;5041639;28;20473;-87
2023/06/08 09:52:11;;;;;;;;;;;;;;;;;;5058749;28;20053;-86
2023/06/08 09:54:38;;;;;;;12.70;4.35;;;;;;;;;;5058492;28;19928;-87
2023/06/08 09:57:05;;;;;;;10.45;4.30;;;;;;;;;;5042089;28;20066;-87
2023/06/08 09:59:37;;;;;;;12.13;3.72;;;;;;;;;;5078501;28;20047;-87
2023/06/08 10:02:16;;;;;;;12.15;3.53;;;;;;;;;;5077358;28;20090;-87
2023/06/08 10:04:45;;;;;;;7.43;3.13;;;;;;;;;;5054357;28;20138;-87
2023/06/08 10:07:15;;;;;;;9.02;3.17;;;;;;;;;;5057032;28;20389;-82
2023/06/08 10:09:43;;;;;;;11.88;3.70;;;;;;;;;;5055124;28;20063;-80
2023/06/08 10:12:10;;;;;;;11.43;3.67;;;;;;;;;;5051346;28;20141;-83
2023/06/08 10:14:36;;;;;;;7.85;3.50;;;;;;;;;;5061022;28;20132;-83
2023/06/08 10:17:02;;;;;;;7.45;3.50;;;;;;;;;;5049382;28;20045;-86
2023/06/08 10:19:30;;;;;;;12.10;4.38;;;;;;;;;;5064463;28;20048;-83
2023/06/08 10:21:57;;;;;;;9.57;3.47;;;;;;;;;;5078571;28;20052;-84
2023/06/08 10:24:24;;;;;;;10.35;3.67;;;;;;;;;;5063881;28;20453;-84
2023/06/08 10:26:50;;;;;;;11.45;3.80;;;;;;;;;;5064112;28;20044;-84
2023/06/08 10:29:17;;;;;;;8.73;3.25;;;;;;;;;;5057249;28;20052;-85
2023/06/08 10:31:50;;;;;;;8.73;3.92;;;;;;;;;;5051078;28;20097;-84
2023/06/08 10:34:19;;;;;;;8.60;3.60;;;;;;;;;;5069081;28;20064;-85
2023/06/08 10:36:46;;;;;;;10.30;3.30;;;;;;;;;;5061612;28;20048;-85
2023/06/08 10:39:14;;;;;;;7.55;3.28;;;;;;;;;;5091719;28;20070;-88
2023/06/08 10:41:40;;;;;;;9.50;3.40;;;;;;;;;;5075149;28;20059;-89
2023/06/08 10:44:06;;;;;;;;;;;;;;;;;;5094498;28;20408;-90
2023/06/08 10:46:42;;;;;;;6.60;3.03;;;;;;;;;;5061974;28;19971;-83
2023/06/08 10:49:08;;;;;;;9.43;3.35;;;;;;;;;;5075565;28;20841;-72
2023/06/08 10:51:44;;;;;;;6.25;3.00;;;;;;;;;;5074197;28;20048;-77
2023/06/08 10:54:20;;;;;;;9.75;3.80;;;;;;;;;;5086294;28;20131;-85
2023/06/08 10:56:52;;;;;;;9.50;3.50;;;;;;;;;;5083894;28;20058;-74
2023/06/08 10:59:18;;;;;;;10.00;3.95;;;;;;;;;;5092141;28;20114;-75
2023/06/08 11:01:46;;;;;;;8.77;3.10;;;;;;;;;;5092784;28;20135;-77
2023/06/08 11:04:14;;;;;;;7.30;3.28;;;;;;;;;;5078008;28;20051;-77
2023/06/08 11:06:40;;;;;;;9.02;4.07;;;;;;;;;;5074333;28;20048;-68
2023/06/08 11:09:06;;;;;;;10.23;3.60;;;;;;;;;;5092049;28;20078;-72
2023/06/08 11:11:32;;;;;;;8.07;3.38;;;;;;;;;;5072599;28;20048;-69
2023/06/08 11:14:01;;;;;;;9.60;3.60;;;;;;;;;;5072757;28;20106;-68
2023/06/08 11:16:27;;;;;;;10.13;3.20;;;;;;;;;;5069178;28;20052;-68
2023/06/08 11:18:53;;;;;;;11.93;3.85;;;;;;;;;;5091716;28;20077;-68
2023/06/08 11:21:19;;;;;;;;;;;;;;;;;;5072620;28;20091;-74
2023/06/08 11:23:45;;;;;;;7.18;2.88;;;;;;;;;;5063025;28;19950;-74
2023/06/08 11:26:11;;;;;;;10.60;3.33;;;;;;;;;;5072176;28;20482;-74
2023/06/08 11:28:37;;;;;;;13.90;4.38;;;;;;;;;;5061277;28;20432;-80
2023/06/08 11:31:09;;;;;;;7.03;3.20;;;;;;;;;;5056997;28;20439;-78
2023/06/08 11:33:35;;;;;;;10.18;3.63;;;;;;;;;;5042374;28;20447;-80
2023/06/08 11:36:02;;;;;;;7.57;3.13;;;;;;;;;;5060150;28;20040;-79
2023/06/08 11:38:28;;;;;;;11.27;3.45;;;;;;;;;;5052373;28;20125;-80
2023/06/08 11:40:58;;;;;;;7.72;3.40;;;;;;;;;;5065687;28;20045;-80
2023/06/08 11:43:24;;;;;;;9.40;3.60;;;;;;;;;;5052318;28;20040;-80
2023/06/08 11:45:52;;;;;;;7.38;3.05;;;;;;;;;;5056785;28;20402;-79
2023/06/08 11:48:23;;;;;;;10.40;3.05;;;;;;;;;;5091945;28;20036;-83
2023/06/08 11:50:49;;;;;;;8.82;3.25;;;;;;;;;;5073852;28;20533;-79
2023/06/08 11:53:22;;;;;;;9.27;3.10;;;;;;;;;;5058901;28;20074;-87
2023/06/08 11:55:48;;;;;;;7.18;3.33;;;;;;;;;;5059194;28;20055;-87
2023/06/08 11:58:14;;;;;;;9.60;3.60;;;;;;;;;;5042608;28;20098;-88
2023/06/08 12:00:40;;;;;;;6.70;2.83;;;;;;;;;;5042885;28;20088;-87
2023/06/08 12:03:09;;;;;;;9.68;3.67;;;;;;;;;;5059217;28;20147;-86
2023/06/08 12:05:35;;;;;;;8.95;2.97;;;;;;;;;;5058954;28;20082;-86
2023/06/08 12:08:03;;;;;;;6.97;3.13;;;;;;;;;;5059160;28;20040;-86
2023/06/08 12:10:33;;;;;;;7.05;3.22;;;;;;;;;;5058407;28;20052;-86
2023/06/08 12:13:10;;;;;;;10.48;3.47;;;;;;;;;;5075643;28;20059;-86
2023/06/08 12:15:46;;;;;;;9.98;3.50;;;;;;;;;;5075635;28;20065;-87
2023/06/08 12:18:15;;;;;;;9.88;3.40;;;;;;;;;;5075373;28;20130;-89
2023/06/08 12:20:42;;;;;;;7.53;3.30;;;;;;;;;;5075434;28;20055;-87
2023/06/08 12:23:08;;;;;;;7.45;3.30;;;;;;;;;;5075872;28;20040;-87
2023/06/08 12:25:35;;;;;;;8.95;3.38;;;;;;;;;;5058804;28;20051;-87
2023/06/08 12:28:01;;;;;;;7.53;2.80;;;;;;;;;;5058857;28;20047;-87
2023/06/08 12:30:28;;;;;;;9.32;3.67;;;;;;;;;;5075395;28;20047;-87
2023/06/08 12:32:58;;;;;;;7.53;3.00;;;;;;;;;;5075389;28;20047;-87
2023/06/08 12:35:24;;;;;;;4.65;2.78;;;;;;;;;;5075244;28;20382;-88
2023/06/08 12:37:51;;;;;;;12.60;4.20;;;;;;;;;;5075597;28;20054;-87
2023/06/08 12:40:17;;;;;;;11.02;3.90;;;;;;;;;;5057860;28;20039;-88
2023/06/08 12:42:49;;;;;;;9.88;3.45;;;;;;;;;;5058530;28;20048;-87
2023/06/08 12:45:17;;;;;;;9.57;3.63;;;;;;;;;;5075409;28;20044;-91
2023/06/08 12:47:43;;;;;;;10.07;3.55;;;;;;;;;;5058138;28;20091;-87
2023/06/08 12:50:10;;;;;;;10.25;3.70;;;;;;;;;;5058219;28;20043;-87
2023/06/08 12:52:37;;;;;;;13.60;4.10;;;;;;;;;;5054721;28;20047;-88
2023/06/08 12:55:03;;;;;;;6.55;3.17;;;;;;;;;;5038600;28;20052;-87
2023/06/08 12:57:29;;;;;;;10.10;3.25;;;;;;;;;;5038357;28;20041;-87
2023/06/08 12:59:56;;;;;;;9.50;3.97;;;;;;;;;;5038612;28;20088;-87
2023/06/08 13:02:24;;;;;;;9.00;3.20;;;;;;;;;;5054811;28;20053;-87
2023/06/08 13:04:50;;;;;;;8.70;3.35;;;;;;;;;;5054318;28;20094;-86
2023/06/08 13:07:16;;;;;;;6.68;3.47;;;;;;;;;;5054993;28;20049;-87
2023/06/08 13:09:42;;;;;;;5.95;2.67;;;;;;;;;;5087888;28;20057;-87
2023/06/08 13:12:09;;;;;;;9.13;3.30;;;;;;;;;;5053705;28;20551;-86
2023/06/08 13:14:35;;;;;;;9.43;3.70;;;;;;;;;;5036481;28;20071;-85
2023/06/08 13:17:01;;;;;;;6.78;3.10;;;;;;;;;;5062136;28;20040;-82
2023/06/08 13:19:28;;;;;;;8.57;3.78;;;;;;;;;;5073751;28;20389;-81
2023/06/08 13:21:54;;;;;;;9.73;3.92;;;;;;;;;;5036776;28;20059;-82
2023/06/08 13:24:20;;;;;;;10.13;3.35;;;;;;;;;;5055145;28;20097;-85
2023/06/08 13:26:48;;;;;;;7.32;3.05;;;;;;;;;;5070934;28;20135;-83
2023/06/08 13:29:17;;;;;;;7.00;3.20;;;;;;;;;;5053190;28;20060;-83
2023/06/08 13:31:44;;;;;;;7.65;3.38;;;;;;;;;;5074327;28;20112;-75
2023/06/08 13:34:10;;;;;;;10.43;3.40;;;;;;;;;;5057495;28;20048;-83
2023/06/08 13:36:37;;;;;;;8.27;3.42;;;;;;;;;;5040265;28;20405;-83
2023/06/08 13:39:03;;;;;;;8.48;3.80;;;;;;;;;;5057446;28;20048;-83
2023/06/08 13:41:35;;;;;;;9.85;3.85;;;;;;;;;;5051902;28;20506;-83
2023/06/08 13:44:01;;;;;;;12.02;4.25;;;;;;;;;;5060868;28;20052;-80
2023/06/08 13:46:27;;;;;;;8.52;3.35;;;;;;;;;;5050171;28;20052;-80
2023/06/08 13:48:53;;;;;;;10.10;4.03;;;;;;;;;;5064117;28;20048;-86
2023/06/08 13:51:20;;;;;;;10.20;3.65;;;;;;;;;;5057770;28;20090;-85
2023/06/08 13:53:46;;;;;;;6.13;2.97;;;;;;;;;;5057695;28;20074;-86
2023/06/08 13:56:12;;;;;;;8.25;3.38;;;;;;;;;;5057996;28;20143;-86
2023/06/08 13:58:38;;;;;;;9.57;3.53;;;;;;;;;;5056973;28;20044;-87
2023/06/08 14:01:04;;;;;;;9.45;3.67;;;;;;;;;;5057240;28;20056;-87
2023/06/08 14:03:30;;;;;;;6.20;2.95;;;;;;;;;;5074970;28;20062;-82
2023/06/08 14:05:57;;;;;;;7.38;3.42;;;;;;;;;;5082434;28;20052;-83
2023/06/08 14:08:23;;;;;;;8.98;3.53;;;;;;;;;;5059861;28;20114;-83
2023/06/08 14:10:49;;;;;;;9.52;3.15;;;;;;;;;;5054899;28;20102;-83
2023/06/08 14:13:16;;;;;;;12.52;3.65;;;;;;;;;;5055850;28;20099;-84
2023/06/08 14:15:43;;;;;;;8.82;3.50;;;;;;;;;;5075223;28;20420;-80
2023/06/08 14:18:09;;;;;;;8.30;3.28;;;;;;;;;;5089715;28;20040;-83
2023/06/08 14:20:37;;;;;;;11.50;3.42;;;;;;;;;;5064327;28;20108;-83
2023/06/08 14:23:03;;;;;;;8.70;3.70;;;;;;;;;;5093470;28;20093;-82
2023/06/08 14:25:29;;;;;;;8.23;3.10;;;;;;;;;;5092838;28;20044;-83
2023/06/08 14:27:58;;;;;;;7.25;2.92;;;;;;;;;;5068524;28;20043;-83
2023/06/08 14:30:24;;;;;;;8.68;3.17;;;;;;;;;;5069288;28;20052;-81
2023/06/08 14:32:51;;;;;;;5.75;3.05;;;;;;;;;;5059427;28;20051;-87
2023/06/08 14:35:17;;;;;;;8.73;3.20;;;;;;;;;;5060273;28;20044;-89
2023/06/08 14:37:43;;;;;;;12.10;3.63;;;;;;;;;;5058606;28;20066;-86
2023/06/08 14:40:09;;;;;;;7.47;3.10;;;;;;;;;;5059689;28;20040;-84
2023/06/08 14:42:35;;;;;;;10.38;3.38;;;;;;;;;;5076186;28;20046;-91
2023/06/08 14:45:01;;;;;;;8.35;3.20;;;;;;;;;;5053950;28;20040;-91
2023/06/08 14:47:27;;;;;;;8.40;3.10;;;;;;;;;;5068737;28;20044;-90
2023/06/08 14:49:53;;;;;;;7.13;2.90;;;;;;;;;;5039086;28;20486;-85
2023/06/08 14:52:20;;;;;;;7.70;2.75;;;;;;;;;;5077293;28;20122;-90
2023/06/08 14:54:46;;;;;;;8.35;3.30;;;;;;;;;;5077364;28;20122;-87
2023/06/08 14:57:12;;;;;;;12.10;3.55;;;;;;;;;;5047434;28;20470;-93